Time;durP1;ratioP1;P1;durP2;ratioP2;P2;SDS_P1;SDS_P2;PMS_P1;PMS_P2;Temp;Humidity;BMP_temperature;BMP_pressure;BME280_temperature;BME280_humidity;BME280_pressure;Samples;Min_cycle;Max_cycle;Signal;HPM_P1;HPM_P2
2022/07/09 00:05:18;;;;;;;11.05;5.28;;;;;;;14.68;100.00;99750.13;4565153;76;21034;-84
2022/07/09 00:11:22;;;;;;;9.98;5.62;;;;;;;14.72;100.00;99751.72;4527168;76;20991;-83
2022/07/09 00:17:25;;;;;;;13.53;6.00;;;;;;;14.63;100.00;99750.47;4530867;76;21480;-83
2022/07/09 00:23:27;;;;;;;10.48;6.33;;;;;;;14.60;100.00;99744.35;4505051;76;21534;-83
2022/07/09 00:29:30;;;;;;;14.93;7.42;;;;;;;14.54;100.00;99739.00;4531117;76;21010;-83
2022/07/09 00:35:33;;;;;;;14.10;5.92;;;;;;;14.51;100.00;99743.91;4501987;76;21622;-83
2022/07/09 00:41:34;;;;;;;10.35;6.08;;;;;;;14.49;100.00;99736.59;4511031;77;21460;-83
2022/07/09 00:47:37;;;;;;;13.48;6.08;;;;;;;14.49;100.00;99744.28;4545916;76;21077;-84
2022/07/09 00:53:39;;;;;;;11.93;7.12;;;;;;;14.48;100.00;99738.59;4520466;76;21101;-83
2022/07/09 00:59:41;;;;;;;14.45;5.97;;;;;;;14.56;100.00;99740.80;4510608;76;22448;-83
2022/07/09 01:05:42;;;;;;;12.35;5.53;;;;;;;14.55;100.00;99744.73;4550807;76;20981;-82
2022/07/09 01:11:44;;;;;;;11.65;4.97;;;;;;;14.57;100.00;99732.72;4507124;76;21019;-83
2022/07/09 01:17:45;;;;;;;9.33;4.25;;;;;;;14.57;100.00;99730.77;4517611;77;20996;-83
2022/07/09 01:23:59;;;;;;;14.35;5.22;;;;;;;14.57;100.00;99734.10;4546887;76;20989;-84
2022/07/09 01:30:04;;;;;;;10.95;4.60;;;;;;;14.54;100.00;99729.36;4544581;76;21023;-84
2022/07/09 01:36:11;;;;;;;15.03;5.85;;;;;;;14.51;100.00;99720.48;4529139;76;20968;-84
2022/07/09 01:42:12;;;;;;;14.65;6.25;;;;;;;14.54;100.00;99717.77;4532913;76;20983;-84
2022/07/09 01:48:15;;;;;;;13.53;6.20;;;;;;;14.56;100.00;99707.73;4536420;76;21576;-83
2022/07/09 01:54:17;;;;;;;8.08;5.35;;;;;;;14.56;100.00;99707.16;4560380;76;21055;-83
2022/07/09 02:00:19;;;;;;;13.48;5.35;;;;;;;14.54;100.00;99699.86;4539908;76;21020;-83
2022/07/09 02:06:21;;;;;;;9.55;5.53;;;;;;;14.55;100.00;99696.52;4535968;76;21007;-83
2022/07/09 02:12:33;;;;;;;15.95;6.62;;;;;;;14.53;100.00;99690.02;4557427;76;21028;-84
2022/07/09 02:18:35;;;;;;;13.83;5.60;;;;;;;14.49;100.00;99690.56;4522239;76;20946;-83
2022/07/09 02:24:36;;;;;;;12.28;6.35;;;;;;;14.48;100.00;99690.38;4552759;76;21008;-83
2022/07/09 02:30:38;;;;;;;12.73;6.35;;;;;;;14.47;100.00;99683.27;4521462;76;21037;-83
2022/07/09 02:36:39;;;;;;;12.25;7.03;;;;;;;14.44;100.00;99680.52;4506416;76;21020;-86
2022/07/09 02:42:41;;;;;;;17.90;8.23;;;;;;;14.41;100.00;99675.16;4461322;77;21107;-84
2022/07/09 02:48:42;;;;;;;12.63;7.85;;;;;;;14.39;100.00;99673.98;4507537;76;20958;-83
2022/07/09 02:54:44;;;;;;;13.20;8.30;;;;;;;14.37;100.00;99672.19;4539528;76;21013;-84
2022/07/09 03:00:45;;;;;;;13.08;7.20;;;;;;;14.40;100.00;99675.55;4538880;76;21040;-84
2022/07/09 03:06:56;;;;;;;12.70;7.67;;;;;;;14.45;100.00;99675.19;4557636;76;21564;-84
2022/07/09 03:13:05;;;;;;;14.03;6.80;;;;;;;14.47;100.00;99676.38;4555597;76;21036;-84
2022/07/09 03:19:13;;;;;;;16.20;7.85;;;;;;;14.47;100.00;99676.38;4521316;75;21631;-83
2022/07/09 03:25:17;;;;;;;12.25;7.65;;;;;;;14.46;100.00;99675.39;4531456;75;21478;-83
2022/07/09 03:31:21;;;;;;;11.80;7.20;;;;;;;14.47;100.00;99673.63;4548829;76;21034;-83
2022/07/09 03:37:24;;;;;;;10.08;6.70;;;;;;;14.48;100.00;99676.60;4536824;76;21054;-84
2022/07/09 03:43:26;;;;;;;10.38;7.97;;;;;;;14.47;100.00;99665.36;4522111;76;21003;-83
2022/07/09 03:49:28;;;;;;;15.72;7.70;;;;;;;14.48;100.00;99668.34;4540299;75;20999;-84
2022/07/09 03:55:30;;;;;;;10.68;7.60;;;;;;;14.47;100.00;99661.84;4544466;76;21026;-84
2022/07/09 04:01:31;;;;;;;13.00;8.20;;;;;;;14.46;100.00;99665.74;4561341;76;21370;-83
2022/07/09 04:07:35;;;;;;;17.12;8.98;;;;;;;14.45;100.00;99671.86;4481951;76;20964;-84
2022/07/09 04:13:44;;;;;;;11.33;7.17;;;;;;;14.44;100.00;99672.25;4523922;76;21062;-83
2022/07/09 04:19:45;;;;;;;17.32;7.03;;;;;;;14.43;100.00;99676.16;4527535;76;20998;-83
2022/07/09 04:25:50;;;;;;;14.55;7.72;;;;;;;14.39;100.00;99670.65;4538699;76;21031;-83
2022/07/09 04:31:51;;;;;;;16.42;7.08;;;;;;;14.38;100.00;99671.80;4551143;76;21002;-83
2022/07/09 04:38:01;;;;;;;11.20;7.08;;;;;;;14.34;100.00;99671.00;4477806;76;21508;-83
2022/07/09 04:44:03;;;;;;;15.98;7.12;;;;;;;14.39;100.00;99665.14;4350065;78;21023;-83
2022/07/09 18:21:55;;;;;;;3.85;1.60;;;;;;;18.77;62.02;99152.90;4347652;80;22244;-87
2022/07/09 18:34:29;;;;;;;3.47;1.70;;;;;;;18.57;64.47;99159.20;4356994;80;21812;-87
2022/07/09 18:40:30;;;;;;;3.75;1.98;;;;;;;18.23;64.27;99153.64;4348700;79;21036;-86
2022/07/09 18:47:00;;;;;;;3.72;1.72;;;;;;;18.08;63.99;99154.50;4327008;80;21453;-87
2022/07/09 18:53:05;;;;;;;3.37;1.67;;;;;;;18.06;63.69;99156.91;4343687;80;21472;-87
2022/07/09 18:59:26;;;;;;;2.75;1.72;;;;;;;18.11;64.15;99161.18;4389157;79;21019;-87
2022/07/09 19:19:23;;;;;;;6.47;3.00;;;;;;;17.87;63.88;99162.37;4384579;79;21137;-87
2022/07/09 19:25:39;;;;;;;5.30;3.05;;;;;;;17.81;63.99;99164.03;4398410;80;20982;-87
2022/07/09 19:38:54;;;;;;;4.92;2.72;;;;;;;17.70;64.48;99166.17;4363866;80;20984;-87
2022/07/09 20:05:41;;;;;;;7.92;4.08;;;;;;;17.44;65.48;99164.98;4436060;77;21107;-87
2022/07/09 20:11:42;;;;;;;8.63;4.28;;;;;;;17.45;66.32;99162.37;4382651;79;22378;-87
2022/07/09 20:18:12;;;;;;;7.87;4.12;;;;;;;17.37;66.85;99170.56;4422005;80;21825;-87
2022/07/09 20:31:06;;;;;;;6.55;3.90;;;;;;;17.25;69.08;99180.80;4400148;78;21062;-87
2022/07/09 20:37:08;;;;;;;9.08;4.12;;;;;;;17.20;69.40;99182.64;4381325;80;21067;-87
2022/07/09 20:50:10;;;;;;;6.80;3.85;;;;;;;17.07;70.55;99182.41;4319735;79;21065;-87
2022/07/09 20:56:14;;;;;;;6.55;4.50;;;;;;;16.98;70.85;99184.89;4368310;81;21564;-86
2022/07/09 21:02:44;;;;;;;6.60;3.80;;;;;;;16.87;71.53;99178.69;4312698;81;21112;-86
2022/07/09 21:09:08;;;;;;;11.33;3.83;;;;;;;16.83;72.64;99190.98;4334721;81;21046;-86
2022/07/09 21:15:24;;;;;;;8.50;3.83;;;;;;;16.73;73.06;99187.73;4387050;79;20999;-86
2022/07/09 21:28:26;;;;;;;5.95;3.75;;;;;;;16.55;74.37;99192.05;4334113;81;21048;-86
2022/07/09 21:34:30;;;;;;;8.83;4.30;;;;;;;16.47;74.86;99193.34;4331673;80;21075;-86
2022/07/09 21:47:43;;;;;;;7.55;4.45;;;;;;;16.22;75.24;99198.85;4402991;79;21126;-84
2022/07/09 21:53:45;;;;;;;8.43;4.62;;;;;;;16.01;75.54;99200.38;4436603;78;20991;-84
2022/07/09 21:59:49;;;;;;;8.73;5.08;;;;;;;15.87;76.11;99189.44;4407126;79;21861;-84
2022/07/09 23:06:55;;;;;;;8.23;4.72;;;;;;;14.65;81.15;99160.66;4304892;80;21031;-83
2022/07/09 23:13:17;;;;;;;10.48;5.10;;;;;;;14.52;81.65;99161.49;4319219;81;21014;-84
2022/07/09 23:19:18;;;;;;;9.83;4.95;;;;;;;14.39;81.89;99158.37;4219133;81;21103;-84
2022/07/09 23:25:24;;;;;;;6.90;4.97;;;;;;;14.33;82.64;99150.28;4281698;81;21132;-83
2022/07/09 23:45:10;;;;;;;7.70;5.30;;;;;;;14.31;84.22;99143.61;4313562;79;21096;-83
